Time;durP1;ratioP1;P1;durP2;ratioP2;P2;SDS_P1;SDS_P2;PMS_P1;PMS_P2;Temp;Humidity;BMP_temperature;BMP_pressure;BME280_temperature;BME280_humidity;BME280_pressure;Samples;Min_cycle;Max_cycle;Signal;HPM_P1;HPM_P2
2022/11/10 00:02:04;;;;;;;5.15;2.22;;;9.50;99.90;;;;;;5036284;28;20080;-70
2022/11/10 00:04:29;;;;;;;7.95;3.17;;;9.50;99.90;;;;;;5035488;28;20049;-70
2022/11/10 00:06:55;;;;;;;5.30;2.70;;;9.40;99.90;;;;;;5034988;28;20409;-69
2022/11/10 00:09:21;;;;;;;7.05;3.13;;;9.50;99.90;;;;;;5018443;28;20057;-69
2022/11/10 00:11:47;;;;;;;11.73;3.65;;;9.40;99.90;;;;;;5017998;28;20458;-69
2022/11/10 00:16:59;;;;;;;7.35;2.70;;;9.40;99.90;;;;;;5035357;28;20140;-69
2022/11/10 00:19:26;;;;;;;6.30;2.80;;;9.40;99.90;;;;;;5035608;28;20048;-69
2022/11/10 00:21:52;;;;;;;9.30;3.70;;;9.40;99.90;;;;;;5035229;28;20049;-69
2022/11/10 00:24:17;;;;;;;5.53;2.90;;;9.40;99.90;;;;;;5035117;28;20049;-68
2022/11/10 00:26:43;;;;;;;7.65;3.95;;;9.40;99.90;;;;;;5017679;28;20046;-69
2022/11/10 00:29:09;;;;;;;6.43;3.38;;;9.40;99.90;;;;;;5035095;28;20068;-68
2022/11/10 00:31:37;;;;;;;5.40;3.28;;;9.30;99.90;;;;;;5017905;28;20132;-69
2022/11/10 00:34:02;;;;;;;8.75;3.72;;;9.40;99.90;;;;;;5034958;28;20135;-70
2022/11/10 00:36:28;;;;;;;6.70;3.33;;;9.50;99.90;;;;;;5034998;28;20137;-69
2022/11/10 00:38:54;;;;;;;9.50;3.55;;;9.30;99.90;;;;;;5034947;28;20104;-69
2022/11/10 00:41:20;;;;;;;7.65;3.30;;;9.30;99.90;;;;;;5034878;28;20128;-69
2022/11/10 00:43:47;;;;;;;10.38;4.28;;;9.20;99.90;;;;;;5017842;28;20099;-69
2022/11/10 00:46:13;;;;;;;6.22;2.80;;;9.20;99.90;;;;;;5034811;28;20053;-69
2022/11/10 00:48:40;;;;;;;11.85;3.00;;;9.20;99.90;;;;;;5034700;28;20486;-69
2022/11/10 00:51:05;;;;;;;11.63;3.58;;;9.30;99.90;;;;;;5035061;28;20052;-70
2022/11/10 00:53:31;;;;;;;7.18;3.38;;;9.20;99.90;;;;;;5034655;28;20049;-69
2022/11/10 00:55:57;;;;;;;7.63;3.03;;;9.20;99.90;;;;;;5034851;28;20448;-69
2022/11/10 00:58:22;;;;;;;7.97;3.15;;;9.30;99.90;;;;;;5034585;28;20044;-69
2022/11/10 01:00:48;;;;;;;9.82;4.78;;;9.20;99.90;;;;;;5017124;28;20049;-68
2022/11/10 01:03:15;;;;;;;7.72;3.25;;;9.20;99.90;;;;;;5034388;28;20064;-70
2022/11/10 01:05:42;;;;;;;10.40;3.42;;;9.20;99.90;;;;;;5034542;28;20056;-69
2022/11/10 01:08:08;;;;;;;7.20;3.05;;;9.20;99.90;;;;;;5017172;28;20131;-69
2022/11/10 01:10:33;;;;;;;5.75;3.05;;;9.20;99.90;;;;;;5034368;28;20480;-69
2022/11/10 01:12:59;;;;;;;6.97;2.88;;;9.10;99.90;;;;;;5033092;28;20498;-68
2022/11/10 01:15:25;;;;;;;7.60;2.72;;;9.10;99.90;;;;;;5034673;28;20103;-69
2022/11/10 01:17:53;;;;;;;7.50;2.78;;;9.00;99.90;;;;;;5016810;28;20066;-69
2022/11/10 01:20:19;;;;;;;10.60;3.30;;;9.00;99.90;;;;;;5016690;28;20046;-69
2022/11/10 01:22:45;;;;;;;8.10;3.20;;;9.00;99.90;;;;;;5034122;28;20056;-69
2022/11/10 01:25:10;;;;;;;7.53;2.80;;;9.00;99.90;;;;;;5034542;28;20049;-69
2022/11/10 01:27:36;;;;;;;9.18;3.30;;;9.10;99.90;;;;;;5034712;28;20081;-69
2022/11/10 01:30:03;;;;;;;9.35;3.35;;;9.00;99.90;;;;;;5033998;28;20513;-69
2022/11/10 01:32:29;;;;;;;5.30;2.92;;;9.00;99.90;;;;;;5033832;28;20049;-69
2022/11/10 01:34:56;;;;;;;5.78;2.80;;;9.00;99.90;;;;;;5033853;28;20045;-69
2022/11/10 01:37:21;;;;;;;9.38;3.85;;;9.00;99.90;;;;;;5017191;28;20130;-69
2022/11/10 01:39:47;;;;;;;8.43;2.95;;;9.00;99.90;;;;;;5033846;28;20501;-69
2022/11/10 01:42:13;;;;;;;10.50;2.92;;;9.00;99.90;;;;;;5033824;28;20079;-70
2022/11/10 01:44:40;;;;;;;10.27;3.42;;;8.90;99.90;;;;;;5016300;28;20068;-69
2022/11/10 01:47:06;;;;;;;7.13;4.10;;;8.90;99.90;;;;;;5033749;28;20042;-69
2022/11/10 01:49:34;;;;;;;10.60;3.30;;;8.90;99.90;;;;;;5000221;28;20045;-69
2022/11/10 01:52:12;;;;;;;9.45;3.22;;;8.90;99.90;;;;;;5033633;28;20041;-69
2022/11/10 01:54:45;;;;;;;7.80;3.03;;;9.00;99.90;;;;;;5000536;28;20056;-69
2022/11/10 01:57:13;;;;;;;9.18;3.22;;;9.00;99.90;;;;;;5015526;28;20055;-69
2022/11/10 01:59:44;;;;;;;6.38;2.97;;;8.90;99.90;;;;;;5016120;28;20045;-68
2022/11/10 02:02:30;;;;;;;7.57;3.30;;;8.90;99.90;;;;;;5034216;28;20053;-69
2022/11/10 02:04:57;;;;;;;10.80;3.83;;;8.90;99.90;;;;;;5033507;28;20129;-68
2022/11/10 02:07:23;;;;;;;7.90;3.28;;;8.90;99.90;;;;;;5032924;28;20049;-69
2022/11/10 02:09:49;;;;;;;7.85;3.17;;;8.90;99.90;;;;;;5033401;28;20053;-68
2022/11/10 02:12:15;;;;;;;11.25;3.45;;;9.10;99.90;;;;;;5033196;28;20159;-66
2022/11/10 02:14:41;;;;;;;8.43;3.15;;;8.80;99.90;;;;;;5033245;28;20049;-64
2022/11/10 02:17:08;;;;;;;9.57;3.15;;;8.80;99.90;;;;;;5033710;28;20042;-64
2022/11/10 02:19:40;;;;;;;11.93;3.10;;;8.80;99.90;;;;;;5033209;28;20049;-64
2022/11/10 02:22:06;;;;;;;6.03;3.42;;;8.80;99.90;;;;;;5015814;28;20080;-64
2022/11/10 02:24:31;;;;;;;8.48;3.50;;;8.80;99.90;;;;;;5015965;28;20096;-64
2022/11/10 02:26:57;;;;;;;6.55;3.08;;;8.90;99.90;;;;;;5033118;28;20050;-64
2022/11/10 02:29:24;;;;;;;9.38;3.60;;;8.90;99.90;;;;;;5033528;28;20046;-64
2022/11/10 02:31:50;;;;;;;9.43;3.35;;;8.90;99.90;;;;;;5033086;28;20087;-65
2022/11/10 02:34:16;;;;;;;7.15;3.25;;;9.40;99.90;;;;;;5015524;28;20100;-64
2022/11/10 02:36:42;;;;;;;6.57;3.20;;;8.90;99.90;;;;;;5033037;28;20061;-64
2022/11/10 02:39:08;;;;;;;8.82;4.28;;;8.90;99.90;;;;;;5032989;28;20042;-64
2022/11/10 02:41:34;;;;;;;8.35;3.65;;;8.90;99.90;;;;;;5033536;28;20041;-64
2022/11/10 02:44:00;;;;;;;11.25;4.07;;;8.90;99.90;;;;;;5032953;28;20048;-64
2022/11/10 02:46:25;;;;;;;9.65;3.58;;;8.90;99.90;;;;;;5032997;28;20045;-64
2022/11/10 02:48:51;;;;;;;7.75;3.05;;;8.90;99.90;;;;;;5032862;28;20045;-65
2022/11/10 02:51:17;;;;;;;7.97;3.13;;;8.90;99.90;;;;;;5032981;28;20420;-64
2022/11/10 02:53:43;;;;;;;7.88;3.13;;;8.90;99.90;;;;;;5031706;28;20045;-65
2022/11/10 02:56:08;;;;;;;9.27;3.47;;;8.90;99.90;;;;;;5032807;28;20057;-65
2022/11/10 02:58:34;;;;;;;8.68;3.53;;;9.00;99.90;;;;;;5033357;28;20057;-64
2022/11/10 03:01:04;;;;;;;9.10;3.20;;;9.00;99.90;;;;;;5032864;28;20488;-64
2022/11/10 03:03:30;;;;;;;6.43;3.90;;;9.00;99.90;;;;;;5032968;28;20045;-64
2022/11/10 03:05:56;;;;;;;9.20;3.50;;;9.00;99.90;;;;;;5032730;28;20045;-65
2022/11/10 03:08:21;;;;;;;9.90;3.67;;;9.00;99.90;;;;;;5035931;28;20101;-64
2022/11/10 03:10:47;;;;;;;8.70;3.90;;;9.00;99.90;;;;;;5036688;28;20045;-64
2022/11/10 03:13:12;;;;;;;11.38;4.40;;;9.00;99.90;;;;;;5036440;28;20184;-64
2022/11/10 03:15:38;;;;;;;6.45;4.18;;;9.00;99.90;;;;;;5003479;28;20370;-64
2022/11/10 03:18:04;;;;;;;11.40;4.78;;;9.00;99.90;;;;;;5036361;28;20045;-64
2022/11/10 03:20:30;;;;;;;10.57;5.22;;;9.00;99.90;;;;;;5036257;28;20470;-64
2022/11/10 03:23:00;;;;;;;10.27;4.80;;;9.00;99.90;;;;;;5018784;28;20045;-64
2022/11/10 03:25:26;;;;;;;12.85;5.15;;;9.10;99.90;;;;;;5036285;28;20056;-64
2022/11/10 03:27:52;;;;;;;11.73;4.40;;;9.00;99.90;;;;;;5036169;28;20041;-65
2022/11/10 03:30:17;;;;;;;9.07;4.38;;;9.00;99.90;;;;;;5035902;28;20053;-65
2022/11/10 03:32:43;;;;;;;11.98;5.32;;;9.00;99.90;;;;;;5036548;28;20136;-64
2022/11/10 03:35:09;;;;;;;9.00;4.50;;;9.10;99.90;;;;;;5036089;28;20052;-64
2022/11/10 03:37:35;;;;;;;9.50;5.40;;;9.00;99.90;;;;;;5018571;28;20404;-64
2022/11/10 03:40:01;;;;;;;10.70;4.82;;;9.00;99.90;;;;;;5018413;28;20053;-64
2022/11/10 03:42:26;;;;;;;8.18;4.85;;;9.20;99.90;;;;;;5035968;28;20045;-65
2022/11/10 03:44:52;;;;;;;13.18;5.13;;;9.00;99.90;;;;;;5018164;28;20081;-64
2022/11/10 03:47:18;;;;;;;14.32;5.25;;;9.00;99.90;;;;;;5018411;28;20053;-64
2022/11/10 03:49:44;;;;;;;12.25;4.95;;;9.00;99.90;;;;;;5035789;28;20045;-64
2022/11/10 03:52:09;;;;;;;11.20;6.10;;;9.00;99.90;;;;;;5035811;28;20091;-64
2022/11/10 03:54:35;;;;;;;8.02;5.03;;;9.00;99.90;;;;;;5035737;28;20042;-64
2022/11/10 03:57:01;;;;;;;10.95;5.03;;;9.00;99.90;;;;;;5036207;28;20050;-64
2022/11/10 03:59:26;;;;;;;9.90;4.95;;;9.00;99.90;;;;;;5035657;28;20053;-64
2022/11/10 04:01:52;;;;;;;10.73;5.22;;;8.90;99.90;;;;;;5018340;28;20046;-65
2022/11/10 04:09:46;;;;;;;11.20;5.90;;;8.90;99.90;;;;;;5035509;28;20057;-64
2022/11/10 04:17:40;;;;;;;11.82;5.47;;;8.90;99.90;;;;;;5020504;28;20140;-64
2022/11/10 04:20:06;;;;;;;12.77;5.60;;;8.90;99.90;;;;;;5034640;28;20132;-64
2022/11/10 04:25:16;;;;;;;10.32;5.57;;;9.00;99.90;;;;;;5035328;28;20049;-64
2022/11/10 04:27:41;;;;;;;12.73;5.55;;;8.90;99.90;;;;;;5034935;28;20363;-64
2022/11/10 04:30:07;;;;;;;10.43;5.45;;;8.90;99.90;;;;;;5035470;28;20515;-64
2022/11/10 04:32:33;;;;;;;10.07;5.68;;;8.90;99.90;;;;;;5018069;28;20092;-65
2022/11/10 04:34:59;;;;;;;11.15;5.28;;;8.90;99.90;;;;;;5035016;28;20474;-64
2022/11/10 04:37:24;;;;;;;16.13;6.13;;;8.90;99.90;;;;;;5035039;28;20104;-64
2022/11/10 04:39:50;;;;;;;14.18;6.20;;;8.90;99.90;;;;;;5017258;28;20045;-64
2022/11/10 04:42:16;;;;;;;12.73;6.93;;;9.20;99.90;;;;;;5035403;28;20046;-64
2022/11/10 04:44:41;;;;;;;13.45;7.13;;;8.90;99.90;;;;;;5035317;28;20524;-65
2022/11/10 04:47:07;;;;;;;15.02;6.63;;;9.00;99.90;;;;;;5034758;28;20511;-65
2022/11/10 04:49:32;;;;;;;13.85;6.13;;;9.00;99.90;;;;;;5034652;28;20045;-64
2022/11/10 04:51:58;;;;;;;14.48;6.40;;;8.90;99.90;;;;;;5034321;28;20132;-65
2022/11/10 04:54:24;;;;;;;15.05;7.38;;;8.90;99.90;;;;;;5034610;28;20064;-64
2022/11/10 04:56:50;;;;;;;15.02;6.72;;;9.00;99.90;;;;;;5034621;28;20052;-65
2022/11/10 04:59:16;;;;;;;12.48;7.38;;;9.00;99.90;;;;;;5034514;28;20037;-64
2022/11/10 05:01:41;;;;;;;12.38;6.90;;;9.00;99.90;;;;;;5034423;28;20076;-64
2022/11/10 05:04:07;;;;;;;14.90;8.15;;;9.00;99.90;;;;;;5034375;28;20092;-65
2022/11/10 05:06:33;;;;;;;16.08;7.20;;;9.10;99.90;;;;;;5034394;28;20049;-64
2022/11/10 05:08:58;;;;;;;17.05;7.75;;;9.10;99.90;;;;;;5034219;28;20046;-64
2022/11/10 05:11:24;;;;;;;13.98;8.45;;;9.10;99.90;;;;;;5034291;28;20064;-65
2022/11/10 05:13:50;;;;;;;15.75;7.57;;;9.10;99.90;;;;;;5017567;28;20080;-65
2022/11/10 05:16:16;;;;;;;12.77;7.03;;;9.20;99.90;;;;;;5034467;28;20354;-64
2022/11/10 05:18:41;;;;;;;14.50;7.30;;;9.20;99.90;;;;;;5034078;28;20080;-64
2022/11/10 05:21:07;;;;;;;14.63;7.75;;;9.20;99.90;;;;;;5034077;28;20108;-65
2022/11/10 05:23:40;;;;;;;14.63;7.82;;;9.20;99.90;;;;;;5034019;28;20046;-65
2022/11/10 05:26:09;;;;;;;12.77;6.93;;;9.20;99.90;;;;;;5033944;28;20060;-64
2022/11/10 05:28:35;;;;;;;15.48;7.95;;;9.20;99.90;;;;;;5033862;28;20184;-65
2022/11/10 05:31:00;;;;;;;13.95;7.35;;;9.30;99.90;;;;;;5032942;28;20045;-66
2022/11/10 05:33:26;;;;;;;13.23;7.65;;;9.30;99.90;;;;;;5034088;28;20049;-65
2022/11/10 05:35:52;;;;;;;18.10;8.40;;;9.40;99.90;;;;;;5034077;28;20045;-65
2022/11/10 05:38:17;;;;;;;13.32;7.78;;;8.60;99.90;;;;;;5034323;28;20040;-65
2022/11/10 05:40:43;;;;;;;15.45;7.88;;;9.40;99.90;;;;;;5033737;28;20051;-65
2022/11/10 05:43:10;;;;;;;14.15;8.38;;;9.40;99.90;;;;;;5034015;28;20133;-65
2022/11/10 05:45:35;;;;;;;15.35;9.35;;;9.50;99.90;;;;;;5034180;28;20084;-65
2022/11/10 05:48:01;;;;;;;15.65;8.85;;;9.50;99.90;;;;;;5033434;28;20529;-65
2022/11/10 05:50:27;;;;;;;15.30;7.65;;;9.50;99.90;;;;;;5033291;28;20049;-65
2022/11/10 05:52:54;;;;;;;18.67;8.63;;;9.50;99.90;;;;;;5033622;28;20052;-65
2022/11/10 05:55:22;;;;;;;15.15;8.25;;;9.50;99.90;;;;;;5034047;28;20045;-64
2022/11/10 05:57:50;;;;;;;15.68;7.75;;;9.50;99.90;;;;;;5033673;28;20104;-65
2022/11/10 06:00:20;;;;;;;14.48;7.95;;;9.50;99.90;;;;;;5033409;28;20052;-64
2022/11/10 06:02:57;;;;;;;15.85;7.95;;;9.50;99.90;;;;;;5033654;28;20054;-65
2022/11/10 06:05:23;;;;;;;14.77;8.10;;;9.50;99.90;;;;;;5033911;28;20124;-65
2022/11/10 06:07:49;;;;;;;15.98;8.55;;;9.50;99.90;;;;;;5032921;28;20393;-65
2022/11/10 06:10:15;;;;;;;14.68;7.93;;;9.60;99.90;;;;;;5033326;28;20057;-65
2022/11/10 06:12:40;;;;;;;12.35;7.03;;;9.50;99.90;;;;;;5033299;28;20046;-65
2022/11/10 06:15:07;;;;;;;15.77;8.35;;;9.60;99.90;;;;;;5033320;28;20135;-65
2022/11/10 06:17:35;;;;;;;13.82;7.90;;;9.50;99.90;;;;;;5033265;28;20041;-64
2022/11/10 06:20:02;;;;;;;15.13;7.88;;;9.50;99.90;;;;;;5033239;28;20053;-65
2022/11/10 06:22:27;;;;;;;14.77;7.72;;;9.50;99.90;;;;;;5033187;28;20129;-64
2022/11/10 06:24:53;;;;;;;13.52;7.40;;;9.50;99.90;;;;;;5033135;28;20128;-65
2022/11/10 06:27:19;;;;;;;12.75;6.40;;;9.50;99.90;;;;;;5033195;28;20046;-65
2022/11/10 06:29:44;;;;;;;15.00;7.20;;;9.60;99.90;;;;;;5033050;28;20503;-65
2022/11/10 06:32:10;;;;;;;16.15;7.57;;;9.50;99.90;;;;;;5015645;28;20045;-66
2022/11/10 06:34:36;;;;;;;14.38;7.07;;;9.50;99.90;;;;;;5033014;28;20045;-65
2022/11/10 06:37:02;;;;;;;14.93;6.90;;;9.50;99.90;;;;;;5032614;28;20144;-65
2022/11/10 06:39:28;;;;;;;12.73;7.22;;;9.50;99.90;;;;;;5032252;28;20124;-65
2022/11/10 06:41:53;;;;;;;13.20;7.18;;;9.50;99.90;;;;;;5032685;28;20049;-65
2022/11/10 06:44:19;;;;;;;13.75;6.00;;;9.50;99.90;;;;;;5036963;28;20041;-65
2022/11/10 06:46:45;;;;;;;16.95;7.43;;;9.40;99.90;;;;;;5036475;28;20139;-64
2022/11/10 06:49:10;;;;;;;11.77;6.57;;;9.50;99.90;;;;;;5018220;28;20038;-64
2022/11/10 06:51:36;;;;;;;10.63;6.82;;;9.50;99.90;;;;;;5036412;28;20131;-64
2022/11/10 06:54:02;;;;;;;13.02;6.35;;;9.50;99.90;;;;;;5019144;28;20041;-65
2022/11/10 06:56:27;;;;;;;13.77;6.57;;;9.50;99.90;;;;;;5036673;28;20048;-64
2022/11/10 06:58:53;;;;;;;14.43;6.68;;;9.40;99.90;;;;;;5035751;28;20458;-64
2022/11/10 07:01:20;;;;;;;10.70;6.70;;;9.40;99.90;;;;;;5036826;28;20095;-65
2022/11/10 07:03:46;;;;;;;10.48;6.28;;;9.50;99.90;;;;;;5036583;28;20128;-64
2022/11/10 07:06:11;;;;;;;14.02;7.03;;;9.50;99.90;;;;;;5036427;28;20132;-65
2022/11/10 07:08:37;;;;;;;14.80;6.25;;;9.40;99.90;;;;;;5036642;28;20057;-65
2022/11/10 07:11:03;;;;;;;12.18;6.65;;;9.50;99.90;;;;;;5036460;28;20067;-70
2022/11/10 07:13:28;;;;;;;13.65;6.30;;;9.50;99.90;;;;;;5018790;28;20045;-62
2022/11/10 07:15:54;;;;;;;14.98;7.18;;;9.50;99.90;;;;;;5036438;28;20037;-62
2022/11/10 07:18:20;;;;;;;12.98;6.70;;;9.50;99.90;;;;;;5036916;28;20430;-62
2022/11/10 07:20:45;;;;;;;16.75;7.43;;;9.60;99.90;;;;;;5036316;28;20359;-62
2022/11/10 07:23:11;;;;;;;13.10;6.05;;;9.60;99.90;;;;;;5036119;28;20080;-62
2022/11/10 07:25:37;;;;;;;13.73;6.78;;;9.60;99.90;;;;;;5019294;28;20046;-62
2022/11/10 07:28:05;;;;;;;15.02;7.03;;;9.70;99.90;;;;;;5035829;28;20048;-62
2022/11/10 07:30:33;;;;;;;13.82;7.00;;;9.80;99.90;;;;;;5018041;28;20049;-62
2022/11/10 07:33:09;;;;;;;11.88;6.88;;;9.80;99.90;;;;;;5035670;28;20046;-62
2022/11/10 07:35:35;;;;;;;11.93;7.00;;;9.90;99.90;;;;;;5035723;28;20045;-63
2022/11/10 07:38:06;;;;;;;15.55;7.72;;;9.90;99.90;;;;;;5035919;28;20046;-63
2022/11/10 07:40:32;;;;;;;11.27;7.43;;;9.90;99.90;;;;;;5018642;28;20474;-63
2022/11/10 07:42:58;;;;;;;14.40;7.00;;;10.00;99.90;;;;;;5035918;28;20137;-63
2022/11/10 07:45:25;;;;;;;13.63;6.85;;;10.10;99.90;;;;;;5035885;28;20099;-63
2022/11/10 07:47:51;;;;;;;16.92;7.40;;;10.10;99.90;;;;;;5035826;28;20095;-62
2022/11/10 07:50:17;;;;;;;13.00;6.93;;;10.00;99.90;;;;;;5036426;28;20049;-63
2022/11/10 07:52:43;;;;;;;13.75;7.22;;;10.10;99.90;;;;;;5035953;28;20124;-63
2022/11/10 07:55:09;;;;;;;11.52;6.47;;;10.10;99.90;;;;;;5034318;28;20549;-63
2022/11/10 07:57:34;;;;;;;17.40;6.00;;;10.10;99.90;;;;;;5035736;28;20132;-63
2022/11/10 08:00:00;;;;;;;13.05;7.00;;;10.10;99.90;;;;;;5035646;28;20041;-63
2022/11/10 08:02:26;;;;;;;12.73;6.43;;;10.10;99.90;;;;;;5036265;28;20428;-63
2022/11/10 08:04:52;;;;;;;9.80;5.93;;;10.10;99.90;;;;;;5035647;28;20139;-63
2022/11/10 08:07:17;;;;;;;14.48;5.82;;;10.10;99.90;;;;;;5018156;28;20065;-63
2022/11/10 08:09:43;;;;;;;17.67;6.43;;;10.10;99.90;;;;;;5034806;28;20080;-63
2022/11/10 08:12:09;;;;;;;13.45;6.90;;;10.10;99.90;;;;;;5034995;28;20104;-67
2022/11/10 08:14:35;;;;;;;11.82;6.90;;;10.20;99.90;;;;;;5035182;28;20493;-67
2022/11/10 08:17:01;;;;;;;11.95;6.03;;;10.10;99.90;;;;;;5035211;28;20050;-67
2022/11/10 08:19:26;;;;;;;11.68;5.65;;;10.20;99.90;;;;;;5035292;28;20398;-66
2022/11/10 08:21:52;;;;;;;16.23;6.75;;;10.20;99.90;;;;;;5033858;28;20099;-66
2022/11/10 08:24:17;;;;;;;11.50;5.80;;;10.20;99.90;;;;;;5035077;28;20048;-66
2022/11/10 08:26:43;;;;;;;10.52;5.78;;;10.20;99.90;;;;;;5035022;28;20120;-65
2022/11/10 08:29:09;;;;;;;15.68;6.47;;;10.30;99.90;;;;;;5034561;28;20041;-64
2022/11/10 08:31:37;;;;;;;9.63;6.18;;;10.30;99.90;;;;;;5034901;28;20045;-65
2022/11/10 08:34:03;;;;;;;15.45;6.30;;;10.30;99.90;;;;;;5035097;28;20053;-65
2022/11/10 08:36:29;;;;;;;10.25;6.40;;;10.30;99.90;;;;;;5035020;28;20060;-65
2022/11/10 08:38:54;;;;;;;15.27;6.10;;;10.30;99.90;;;;;;5017468;28;20049;-65
2022/11/10 08:41:20;;;;;;;11.05;5.88;;;10.30;99.90;;;;;;5035000;28;20128;-64
2022/11/10 08:43:46;;;;;;;10.68;6.80;;;10.30;99.90;;;;;;5034850;28;20120;-66
2022/11/10 08:46:12;;;;;;;12.70;6.53;;;10.30;99.90;;;;;;5017643;28;20041;-65
2022/11/10 08:48:38;;;;;;;12.23;6.05;;;10.40;99.90;;;;;;5034278;28;20048;-64
2022/11/10 08:51:03;;;;;;;11.13;5.75;;;10.50;99.90;;;;;;5034856;28;20045;-64
2022/11/10 08:53:29;;;;;;;11.55;5.45;;;10.60;99.90;;;;;;5035231;28;20041;-64
2022/11/10 08:55:58;;;;;;;14.68;6.45;;;10.70;99.90;;;;;;5035104;28;20410;-64
2022/11/10 08:58:24;;;;;;;8.60;5.07;;;10.80;99.90;;;;;;5034782;28;20042;-64
2022/11/10 09:00:50;;;;;;;10.18;6.05;;;10.90;99.90;;;;;;5034088;28;20522;-64
2022/11/10 09:03:19;;;;;;;11.00;5.15;;;11.00;99.90;;;;;;5034678;28;20045;-65
2022/11/10 09:05:46;;;;;;;12.52;5.70;;;11.10;99.90;;;;;;5034750;28;20047;-65
2022/11/10 09:08:13;;;;;;;10.60;5.80;;;11.10;99.90;;;;;;5034569;28;20126;-65
2022/11/10 09:10:42;;;;;;;9.52;5.55;;;11.30;99.90;;;;;;5034708;28;20057;-64
2022/11/10 09:13:10;;;;;;;8.82;4.60;;;11.30;99.90;;;;;;5034355;28;20037;-64
2022/11/10 09:15:35;;;;;;;10.43;5.10;;;11.40;99.90;;;;;;5034300;28;20098;-62
2022/11/10 09:18:03;;;;;;;9.65;5.10;;;11.40;99.90;;;;;;5034107;28;20529;-62
2022/11/10 09:20:30;;;;;;;13.55;5.13;;;11.30;99.90;;;;;;5034128;28;20037;-61
2022/11/10 09:23:02;;;;;;;10.30;4.70;;;11.30;99.90;;;;;;5034417;28;20378;-62
2022/11/10 09:25:28;;;;;;;11.32;5.70;;;11.40;99.90;;;;;;5034170;28;20045;-62
2022/11/10 09:27:53;;;;;;;7.78;4.05;;;11.40;99.90;;;;;;5032688;28;20111;-62
2022/11/10 09:30:19;;;;;;;9.05;4.50;;;11.50;99.90;;;;;;5034000;28;20128;-62
2022/11/10 09:32:45;;;;;;;9.18;4.43;;;11.60;99.90;;;;;;5016274;28;20124;-62
2022/11/10 09:35:12;;;;;;;10.23;4.00;;;11.60;99.90;;;;;;5034001;28;20047;-62
2022/11/10 09:37:39;;;;;;;10.35;3.78;;;11.70;99.90;;;;;;5015678;28;20112;-62
2022/11/10 09:40:05;;;;;;;11.35;4.30;;;11.90;99.90;;;;;;5033185;28;20479;-62
2022/11/10 09:42:41;;;;;;;7.50;3.85;;;12.10;99.90;;;;;;5033441;28;20116;-62
2022/11/10 09:45:13;;;;;;;6.70;3.42;;;12.30;99.90;;;;;;5033903;28;20045;-62
2022/11/10 09:47:56;;;;;;;6.50;3.22;;;12.50;99.90;;;;;;5033426;28;20124;-62
2022/11/10 09:50:30;;;;;;;7.68;3.95;;;12.60;99.90;;;;;;5033743;28;20128;-62
2022/11/10 09:52:58;;;;;;;7.25;3.72;;;12.70;99.90;;;;;;5033788;28;20099;-62
2022/11/10 09:55:36;;;;;;;8.38;3.40;;;12.70;99.90;;;;;;5034395;28;20095;-62
2022/11/10 09:58:02;;;;;;;7.28;3.22;;;12.60;99.90;;;;;;5033583;28;20045;-62
2022/11/10 10:00:32;;;;;;;9.45;3.92;;;12.70;99.90;;;;;;5033775;28;20104;-62
2022/11/10 10:03:01;;;;;;;8.80;4.00;;;12.90;99.90;;;;;;5033512;28;20045;-62
2022/11/10 10:05:47;;;;;;;7.78;3.40;;;13.10;99.90;;;;;;5033444;28;20544;-62
2022/11/10 10:08:31;;;;;;;8.18;3.20;;;13.30;99.90;;;;;;5033456;28;20488;-62
2022/11/10 10:11:19;;;;;;;8.60;3.10;;;13.40;99.90;;;;;;5034238;28;20049;-62
2022/11/10 10:14:08;;;;;;;11.82;3.55;;;13.20;99.90;;;;;;5033129;28;20532;-62
2022/11/10 10:16:52;;;;;;;7.70;3.38;;;13.30;99.90;;;;;;5032963;28;20133;-62
2022/11/10 10:19:48;;;;;;;8.90;2.40;;;13.30;99.90;;;;;;5033946;28;20042;-62
2022/11/10 10:22:38;;;;;;;6.65;2.60;;;13.50;99.90;;;;;;5033631;28;20037;-62
2022/11/10 10:25:12;;;;;;;6.57;2.90;;;13.70;99.90;;;;;;5033587;28;20071;-62
2022/11/10 10:27:40;;;;;;;9.30;2.72;;;13.70;99.90;;;;;;5033222;28;20044;-62
2022/11/10 10:30:15;;;;;;;8.73;3.15;;;13.30;99.90;;;;;;5033257;28;20098;-62
2022/11/10 10:32:41;;;;;;;8.60;3.05;;;13.00;99.90;;;;;;5033150;28;20095;-62
2022/11/10 10:35:15;;;;;;;6.95;2.42;;;13.00;99.90;;;;;;5033102;28;20049;-62
2022/11/10 10:37:47;;;;;;;7.43;2.42;;;12.90;99.90;;;;;;5032561;28;20045;-63
2022/11/10 10:40:15;;;;;;;10.05;3.20;;;12.80;99.90;;;;;;5032554;28;20543;-62
2022/11/10 10:42:41;;;;;;;6.85;2.05;;;12.90;99.90;;;;;;5016086;28;20369;-63
2022/11/10 10:45:20;;;;;;;10.13;3.17;;;13.00;99.90;;;;;;5033295;28;20048;-63
2022/11/10 10:47:48;;;;;;;6.97;2.60;;;13.00;99.90;;;;;;5033257;28;20041;-63
2022/11/10 10:50:35;;;;;;;9.23;2.75;;;12.90;99.90;;;;;;5032833;28;20042;-63
2022/11/10 10:53:10;;;;;;;6.60;2.83;;;13.00;99.90;;;;;;5015743;28;20045;-62
2022/11/10 10:55:36;;;;;;;8.68;2.80;;;13.10;99.90;;;;;;5031732;28;20041;-63
2022/11/10 10:58:16;;;;;;;5.55;2.45;;;13.10;99.90;;;;;;5032785;28;20044;-63
2022/11/10 11:00:48;;;;;;;10.13;2.42;;;13.10;99.90;;;;;;5032942;28;20040;-63
2022/11/10 11:03:35;;;;;;;6.53;2.00;;;13.10;99.90;;;;;;5016095;28;20037;-63
2022/11/10 11:06:16;;;;;;;9.65;2.78;;;13.10;99.90;;;;;;5032864;28;20052;-63
2022/11/10 11:09:07;;;;;;;8.27;2.67;;;13.10;99.90;;;;;;5033159;28;20088;-63
2022/11/10 11:11:36;;;;;;;10.48;2.47;;;13.20;99.90;;;;;;5023990;28;20473;-63
2022/11/10 11:14:23;;;;;;;6.80;2.85;;;13.10;99.90;;;;;;5014962;28;20053;-63
2022/11/10 11:16:48;;;;;;;;;;;13.10;99.90;;;;;;5033166;28;20052;-62
2022/11/10 11:19:14;;;;;;;7.33;3.27;;;13.10;99.90;;;;;;5032705;28;20015;-63
2022/11/10 11:22:27;;;;;;;10.23;2.85;;;13.10;99.90;;;;;;5032506;28;20077;-63
2022/11/10 11:25:11;;;;;;;8.50;2.50;;;13.10;99.90;;;;;;5026929;28;20103;-63
2022/11/10 11:27:49;;;;;;;10.18;2.53;;;13.20;99.90;;;;;;5032561;28;20064;-63
2022/11/10 11:30:23;;;;;;;6.70;3.15;;;13.20;99.90;;;;;;5036040;28;20064;-63
2022/11/10 11:33:11;;;;;;;9.52;2.55;;;13.20;99.90;;;;;;5036125;28;20091;-63
2022/11/10 11:36:01;;;;;;;6.75;2.65;;;13.20;99.90;;;;;;5028461;28;20350;-63
2022/11/10 11:38:45;;;;;;;7.10;2.30;;;13.20;99.90;;;;;;5036146;28;20084;-63
2022/11/10 11:41:32;;;;;;;7.10;2.50;;;13.30;99.90;;;;;;5036561;28;20173;-63
2022/11/10 11:44:16;;;;;;;3.88;2.13;;;13.40;99.90;;;;;;5035981;28;20042;-62
2022/11/10 11:46:53;;;;;;;5.80;2.45;;;13.30;99.90;;;;;;5035823;28;20052;-62
2022/11/10 11:49:49;;;;;;;8.82;2.60;;;13.30;99.90;;;;;;5035777;28;20489;-62
2022/11/10 11:52:34;;;;;;;5.93;2.33;;;13.30;99.90;;;;;;5025135;28;20053;-62
2022/11/10 11:55:14;;;;;;;7.15;2.20;;;13.40;99.90;;;;;;5036217;28;20046;-62
2022/11/10 11:58:29;;;;;;;5.28;2.05;;;13.30;99.90;;;;;;5036034;28;20543;-62
2022/11/10 12:01:30;;;;;;;5.43;2.25;;;13.40;99.90;;;;;;5027570;28;20049;-62
2022/11/10 12:04:20;;;;;;;5.55;2.15;;;13.50;99.90;;;;;;5012195;28;20143;-62
2022/11/10 12:06:59;;;;;;;6.22;2.00;;;13.50;99.90;;;;;;5035599;28;20041;-62
2022/11/10 12:09:44;;;;;;;8.10;2.13;;;13.50;99.90;;;;;;5035973;28;20128;-62
2022/11/10 12:12:13;;;;;;;7.10;2.35;;;13.50;99.90;;;;;;5018052;28;20526;-66
2022/11/10 12:15:03;;;;;;;6.20;2.05;;;13.50;99.90;;;;;;5017955;28;20445;-65
2022/11/10 12:17:53;;;;;;;5.18;2.30;;;13.60;99.90;;;;;;5035772;28;20113;-66
2022/11/10 12:20:41;;;;;;;9.18;2.20;;;13.60;99.90;;;;;;5018269;28;20381;-65
2022/11/10 12:23:16;;;;;;;10.20;2.50;;;13.60;99.90;;;;;;5035670;28;20369;-66
2022/11/10 12:25:42;;;;;;;6.70;2.20;;;13.60;99.90;;;;;;5035338;28;20041;-66
2022/11/10 12:28:16;;;;;;;8.10;2.03;;;13.70;99.90;;;;;;5034723;28;20041;-66
2022/11/10 12:30:43;;;;;;;7.40;2.40;;;13.70;99.90;;;;;;5035272;28;20045;-65
2022/11/10 12:33:38;;;;;;;7.70;2.13;;;13.70;99.90;;;;;;5035386;28;20042;-65
2022/11/10 12:36:10;;;;;;;7.25;2.25;;;13.80;99.90;;;;;;5035198;28;20049;-67
2022/11/10 12:38:50;;;;;;;6.55;2.20;;;13.90;99.90;;;;;;5035505;28;20048;-66
2022/11/10 12:41:19;;;;;;;6.85;2.00;;;13.80;99.90;;;;;;5034283;28;20041;-66
2022/11/10 12:43:59;;;;;;;7.07;2.30;;;13.90;99.90;;;;;;5034737;28;20041;-65
2022/11/10 12:46:25;;;;;;;7.70;2.03;;;13.90;99.90;;;;;;5017951;28;20442;-65
2022/11/10 12:49:15;;;;;;;6.95;2.22;;;13.80;99.90;;;;;;5035471;28;20112;-67
2022/11/10 12:52:17;;;;;;;5.18;2.13;;;13.90;99.90;;;;;;5035532;28;20124;-66
2022/11/10 12:54:45;;;;;;;6.28;1.90;;;13.90;99.90;;;;;;5034523;28;20049;-65
2022/11/10 12:57:16;;;;;;;10.65;2.58;;;13.90;99.90;;;;;;5034220;28;20370;-65
2022/11/10 12:59:53;;;;;;;6.20;1.92;;;14.00;99.90;;;;;;5034448;28;20462;-65
2022/11/10 13:02:33;;;;;;;5.82;1.85;;;14.00;99.90;;;;;;5034501;28;20041;-65
2022/11/10 13:05:14;;;;;;;6.43;2.53;;;14.00;99.90;;;;;;5017446;28;20053;-65
2022/11/10 13:08:03;;;;;;;5.68;2.00;;;13.90;99.90;;;;;;5034331;28;20092;-65
2022/11/10 13:10:29;;;;;;;5.95;2.05;;;13.90;99.90;;;;;;5017019;28;20045;-65
2022/11/10 13:13:04;;;;;;;6.10;1.88;;;13.80;99.90;;;;;;5033923;28;20508;-66
2022/11/10 13:15:38;;;;;;;7.20;1.65;;;13.90;99.90;;;;;;5034277;28;20119;-66
2022/11/10 13:18:21;;;;;;;4.50;1.83;;;13.90;99.90;;;;;;5034425;28;20481;-67